PHKO METAR and TAF weather

Enter ICAO airport designator
Station Type Date Time Source
PHKO METAR 2020/09/21 08:53 UTC NOAA

PHKO 210853Z AUTO 14005KT 10SM CLR 27/19 A2999 RMK AO2 SLP156 T0267


Station Type Date Time Source
PHKO Decoded METAR 2020/09/21 08:53 UTC NOAA

KONA INTERNATIONAL AIRPORT, HI, United States (PHKO) 19-44N 156-03W 27M
Sep 21, 2020 - 04:53 AM EDT / 2020.09.21 0853 UTC
Wind: from the SE (140 degrees) at 6 MPH (5 KT):0
Visibility: 10 mile(s):0
Sky conditions: clear
Temperature: 80.1 F (26.7 C)
Dew Point: 66.0 F (18.9 C)
Relative Humidity: 62%
Pressure (altimeter): 29.99 in. Hg (1015 hPa)
Pressure tendency: 0.02 inches (0.7 hPa) higher than three hours ago
ob: PHKO 210853Z AUTO 14005KT 10SM CLR 27/19 A2999 RMK AO2 SLP156 T02670189 51007 TSNO
cycle: 9

Station Type Date Time Source
PHKO TAF 2020/09/21 06:33 UTC NOAA

PHKO 210530Z 2106/2206 VRB05KT P6SM FEW030 SCT060
FM211900 22009KT P6SM FEW030 SCT060
FM220500 VRB05KT P6SM FEW030 SCT060

Example: see airport list